Time;durP1;ratioP1;P1;durP2;ratioP2;P2;SDS_P1;SDS_P2;PMS_P1;PMS_P2;Temp;Humidity;BMP_temperature;BMP_pressure;BME280_temperature;BME280_humidity;BME280_pressure;Samples;Min_cycle;Max_cycle;Signal;HPM_P1;HPM_P2
2022/01/03 00:01:45;;;;;;;0.40;0.30;;;;;;;11.15;67.43;99196.25;103760;1273;138594;-67
2022/01/03 00:04:15;;;;;;;0.40;0.30;;;;;;;11.18;67.26;99184.38;103934;1274;94600;-68
2022/01/03 00:06:44;;;;;;;0.40;0.30;;;;;;;11.16;66.79;99172.23;103922;1274;139578;-66
2022/01/03 00:09:12;;;;;;;0.40;0.30;;;;;;;11.13;66.62;99175.23;103859;1274;108844;-67
2022/01/03 00:11:40;;;;;;;0.40;0.30;;;;;;;11.14;66.73;99175.71;103724;1274;139094;-67
2022/01/03 00:14:08;;;;;;;0.40;0.30;;;;;;;11.11;66.66;99182.77;103760;1274;94432;-65
2022/01/03 00:16:35;;;;;;;0.40;0.30;;;;;;;11.06;66.73;99174.66;103867;1274;94282;-66
2022/01/03 00:19:03;;;;;;;0.40;0.30;;;;;;;11.04;66.79;99175.30;103610;1274;139887;-66
2022/01/03 00:21:44;;;;;;;0.40;0.30;;;;;;;11.05;66.74;99174.20;103824;1274;108329;-66
2022/01/03 00:24:13;;;;;;;0.40;0.30;;;;;;;11.08;66.90;99168.01;103607;1274;140700;-67
2022/01/03 00:26:43;;;;;;;0.40;0.30;;;;;;;11.05;66.79;99173.14;103776;1274;95007;-65
2022/01/03 00:29:19;;;;;;;0.50;0.40;;;;;;;11.04;66.86;99173.17;103728;1274;107846;-66
2022/01/03 00:31:47;;;;;;;0.40;0.30;;;;;;;11.06;66.78;99166.16;103912;1274;139091;-67
2022/01/03 00:34:15;;;;;;;0.40;0.30;;;;;;;11.08;66.69;99162.52;103819;1274;94811;-67
2022/01/03 00:36:45;;;;;;;0.40;0.30;;;;;;;11.08;66.60;99162.67;103591;1274;139257;-65
2022/01/03 00:39:13;;;;;;;0.40;0.30;;;;;;;11.06;66.55;99161.35;103895;1274;109619;-66
2022/01/03 00:41:43;;;;;;;0.50;0.30;;;;;;;11.08;66.49;99168.19;103727;1274;140937;-65
2022/01/03 00:44:12;;;;;;;0.40;0.30;;;;;;;11.10;66.40;99171.63;103705;1274;94813;-66
2022/01/03 00:46:42;;;;;;;0.40;0.30;;;;;;;11.06;66.18;99175.75;103669;1274;94843;-66
2022/01/03 00:49:10;;;;;;;0.40;0.30;;;;;;;11.05;66.40;99179.70;103515;1274;138847;-66
2022/01/03 00:51:38;;;;;;;0.40;0.40;;;;;;;11.07;66.27;99173.93;103647;1274;107998;-66
2022/01/03 00:54:06;;;;;;;0.40;0.30;;;;;;;11.09;66.36;99170.08;103553;1274;140328;-67
2022/01/03 00:56:36;;;;;;;0.40;0.30;;;;;;;11.11;66.16;99168.55;103618;1273;94645;-66
2022/01/03 00:59:09;;;;;;;0.40;0.30;;;;;;;11.09;66.35;99159.24;103528;1274;109686;-66
2022/01/03 01:01:40;;;;;;;0.40;0.30;;;;;;;11.11;66.24;99155.77;103739;1273;140030;-66
2022/01/03 01:04:08;;;;;;;0.40;0.30;;;;;;;11.13;66.10;99154.61;103816;1274;95535;-67
2022/01/03 01:06:38;;;;;;;0.40;0.30;;;;;;;11.10;65.81;99157.40;103746;1274;138112;-66
2022/01/03 01:09:07;;;;;;;0.40;0.30;;;;;;;11.09;65.89;99157.48;103648;1274;106834;-66
2022/01/03 01:11:41;;;;;;;0.40;0.30;;;;;;;11.06;65.76;99152.09;103703;1274;139340;-66
2022/01/03 01:14:11;;;;;;;0.40;0.30;;;;;;;11.06;65.81;99145.39;103946;1273;94719;-66
2022/01/03 01:16:39;;;;;;;0.40;0.30;;;;;;;11.08;65.82;99145.27;103828;1274;94808;-64
2022/01/03 01:19:08;;;;;;;0.40;0.30;;;;;;;11.08;65.87;99140.84;103520;1274;137562;-65
2022/01/03 01:21:37;;;;;;;0.40;0.30;;;;;;;11.04;65.65;99137.84;103625;1274;109325;-65
2022/01/03 01:24:05;;;;;;;0.40;0.30;;;;;;;11.02;65.66;99140.77;103680;1274;139448;-67
2022/01/03 01:29:19;;;;;;;0.40;0.30;;;;;;;10.97;65.31;99138.70;103781;1274;107001;-67
2022/01/03 01:31:50;;;;;;;0.40;0.30;;;;;;;10.94;65.51;99136.53;103600;1274;139731;-67
2022/01/03 01:34:22;;;;;;;0.40;0.40;;;;;;;10.94;65.50;99131.93;103841;1274;94716;-66
2022/01/03 01:36:55;;;;;;;0.40;0.30;;;;;;;10.94;65.53;99133.86;103686;1274;140363;-66
2022/01/03 01:39:25;;;;;;;0.40;0.30;;;;;;;10.90;65.53;99139.21;103647;1274;108739;-66
2022/01/03 01:41:56;;;;;;;0.40;0.40;;;;;;;10.89;65.58;99143.15;103863;1274;139577;-65
2022/01/03 01:44:25;;;;;;;0.40;0.30;;;;;;;10.89;65.60;99145.77;103708;1274;94311;-64
2022/01/03 01:46:57;;;;;;;0.40;0.30;;;;;;;10.92;65.64;99135.20;103963;1273;94752;-65
2022/01/03 01:49:26;;;;;;;0.40;0.30;;;;;;;10.87;65.39;99129.02;103681;1273;138601;-66
2022/01/03 01:51:59;;;;;;;0.40;0.30;;;;;;;10.88;65.60;99132.17;103759;1273;108326;-66
2022/01/03 01:54:36;;;;;;;0.40;0.30;;;;;;;10.86;65.67;99140.63;103635;1274;138923;-66
2022/01/03 01:57:05;;;;;;;0.40;0.30;;;;;;;10.84;65.65;99140.04;104230;1274;94408;-64
2022/01/03 01:59:52;;;;;;;0.40;0.30;;;;;;;10.87;65.47;99138.09;103801;1274;138746;-66
2022/01/03 02:02:37;;;;;;;0.40;0.30;;;;;;;10.86;65.48;99137.95;103658;1274;108675;-66
2022/01/03 02:05:20;;;;;;;0.50;0.50;;;;;;;10.88;65.42;99132.54;103543;1274;94891;-66
2022/01/03 02:08:00;;;;;;;0.40;0.30;;;;;;;10.90;65.33;99136.89;103487;1273;140535;-66
2022/01/03 02:10:45;;;;;;;0.40;0.30;;;;;;;10.92;65.29;99137.14;103977;1274;107993;-66
2022/01/03 02:13:18;;;;;;;0.40;0.30;;;;;;;10.90;65.30;99133.89;103582;1274;140362;-66
2022/01/03 02:15:50;;;;;;;0.40;0.30;;;;;;;10.89;65.53;99131.25;103809;1273;94852;-66
2022/01/03 02:18:18;;;;;;;0.40;0.30;;;;;;;10.87;65.40;99130.09;103517;1274;138821;-65
2022/01/03 02:20:45;;;;;;;0.40;0.30;;;;;;;10.88;65.35;99127.75;103478;1274;144469;-65
2022/01/03 02:23:14;;;;;;;0.40;0.30;;;;;;;10.89;65.44;99129.65;103611;1274;108294;-65
2022/01/03 02:25:43;;;;;;;0.40;0.40;;;;;;;10.85;65.21;99123.09;103363;1274;140601;-65
2022/01/03 02:28:11;;;;;;;0.50;0.40;;;;;;;10.83;65.28;99116.29;103541;1274;94762;-64
2022/01/03 02:30:39;;;;;;;0.40;0.30;;;;;;;10.81;65.15;99117.59;103796;1274;140159;-67
2022/01/03 02:33:07;;;;;;;0.40;0.30;;;;;;;10.78;65.50;99128.92;103674;1274;108417;-65
2022/01/03 02:35:38;;;;;;;0.40;0.30;;;;;;;10.76;65.40;99126.00;103794;1274;138759;-66
2022/01/03 02:38:08;;;;;;;0.40;0.30;;;;;;;10.71;65.58;99122.67;103557;1274;94726;-64
2022/01/03 02:40:36;;;;;;;0.40;0.40;;;;;;;10.73;65.85;99126.14;103837;1273;108937;-66
2022/01/03 02:43:04;;;;;;;0.40;0.30;;;;;;;10.71;65.63;99123.23;103619;1274;139932;-67
2022/01/03 02:45:33;;;;;;;0.40;0.30;;;;;;;10.70;65.73;99122.36;103668;1274;94369;-65
2022/01/03 02:48:04;;;;;;;0.40;0.30;;;;;;;10.71;65.65;99123.73;107585;1273;138407;-66
2022/01/03 02:50:32;;;;;;;0.40;0.30;;;;;;;10.73;65.73;99117.10;103772;1274;110090;-66
2022/01/03 02:53:01;;;;;;;0.40;0.30;;;;;;;10.76;65.75;99117.67;103891;1273;107809;-66
2022/01/03 02:55:30;;;;;;;0.40;0.30;;;;;;;10.73;65.83;99111.63;103702;1274;142441;-64
2022/01/03 02:58:06;;;;;;;0.40;0.30;;;;;;;10.67;65.76;99108.13;103900;1274;94573;-66
2022/01/03 03:00:54;;;;;;;0.50;0.40;;;;;;;10.60;65.93;99107.41;103818;1274;139189;-64
2022/01/03 03:03:30;;;;;;;0.50;0.30;;;;;;;10.56;66.01;99109.02;103773;1274;108343;-64
2022/01/03 03:06:01;;;;;;;0.40;0.30;;;;;;;10.51;66.10;99099.31;103894;1274;138499;-66
2022/01/03 03:08:30;;;;;;;0.50;0.40;;;;;;;10.49;66.34;99095.35;103829;1274;95385;-66
2022/01/03 03:10:58;;;;;;;0.50;0.40;;;;;;;10.44;66.32;99098.78;103725;1274;107831;-65
2022/01/03 03:13:26;;;;;;;0.40;0.30;;;;;;;10.36;66.33;99099.66;103584;1274;141035;-66
2022/01/03 03:15:54;;;;;;;0.40;0.30;;;;;;;10.35;66.54;99095.08;103983;1274;94312;-66
2022/01/03 03:18:23;;;;;;;0.40;0.40;;;;;;;10.38;66.46;99090.72;104022;1274;137729;-65
2022/01/03 03:20:54;;;;;;;0.40;0.40;;;;;;;10.37;66.42;99094.81;103788;1274;108641;-67
2022/01/03 03:23:23;;;;;;;0.40;0.30;;;;;;;10.35;66.50;99090.30;103791;1273;107963;-65
2022/01/03 03:25:53;;;;;;;0.40;0.30;;;;;;;10.32;66.50;99085.60;103937;1274;139459;-66
2022/01/03 03:28:24;;;;;;;0.40;0.30;;;;;;;10.36;66.49;99089.90;103861;1274;97470;-65
2022/01/03 03:30:54;;;;;;;0.40;0.30;;;;;;;10.35;66.25;99086.39;104060;1273;139817;-65
2022/01/03 03:33:34;;;;;;;0.40;0.30;;;;;;;10.36;66.00;99086.16;103794;1274;108499;-65
2022/01/03 03:36:02;;;;;;;0.40;0.30;;;;;;;10.36;65.83;99090.27;103826;1274;138422;-67
2022/01/03 03:38:30;;;;;;;0.40;0.30;;;;;;;10.31;65.69;99090.08;103865;1273;94378;-67
2022/01/03 03:41:01;;;;;;;0.40;0.40;;;;;;;10.27;65.82;99091.86;103826;1274;108251;-66
2022/01/03 03:43:33;;;;;;;0.40;0.30;;;;;;;10.25;65.80;99091.81;103685;1274;140364;-66
2022/01/03 03:46:03;;;;;;;0.40;0.30;;;;;;;10.24;65.92;99092.58;103879;1274;95501;-66
2022/01/03 03:48:33;;;;;;;0.40;0.30;;;;;;;10.16;65.81;99094.17;103633;1274;139253;-65
2022/01/03 03:51:02;;;;;;;0.40;0.40;;;;;;;10.08;66.07;99100.92;103776;1274;108918;-66
2022/01/03 03:53:30;;;;;;;0.40;0.30;;;;;;;10.03;66.31;99092.59;103807;1274;108334;-67
2022/01/03 03:55:59;;;;;;;0.40;0.30;;;;;;;10.02;66.18;99094.75;104036;1274;141139;-63
2022/01/03 03:58:28;;;;;;;0.40;0.30;;;;;;;9.99;66.14;99094.91;103773;1274;94545;-65
2022/01/03 04:00:55;;;;;;;0.40;0.30;;;;;;;9.98;66.25;99097.80;103719;1274;138116;-66
2022/01/03 04:03:38;;;;;;;0.40;0.30;;;;;;;9.94;66.18;99098.52;103843;1272;108367;-64
2022/01/03 04:06:06;;;;;;;0.40;0.40;;;;;;;9.89;66.33;99099.45;103690;1274;139032;-67
2022/01/03 04:08:34;;;;;;;0.40;0.30;;;;;;;9.84;66.51;99097.02;103775;1274;94728;-66
2022/01/03 04:11:02;;;;;;;0.40;0.40;;;;;;;9.80;66.78;99096.30;103790;1274;107952;-64
2022/01/03 04:13:32;;;;;;;0.40;0.40;;;;;;;9.77;66.99;99099.09;103712;1274;139544;-66
2022/01/03 04:16:00;;;;;;;0.40;0.40;;;;;;;9.71;67.31;99090.64;104073;1274;94306;-67
2022/01/03 04:18:28;;;;;;;0.40;0.30;;;;;;;9.73;67.50;99093.95;103844;1274;137888;-66
2022/01/03 04:20:57;;;;;;;0.50;0.40;;;;;;;9.71;67.65;99092.44;103886;1274;109694;-66
2022/01/03 04:23:25;;;;;;;0.40;0.40;;;;;;;9.68;67.72;99095.73;103804;1273;108349;-67
2022/01/03 04:25:53;;;;;;;0.50;0.40;;;;;;;9.70;67.98;99094.42;103765;1274;138237;-65
2022/01/03 04:28:21;;;;;;;0.40;0.40;;;;;;;9.67;68.08;99092.78;103879;1274;94457;-67
2022/01/03 04:30:51;;;;;;;0.40;0.30;;;;;;;9.63;68.34;99089.06;103811;1274;142017;-66
2022/01/03 04:33:19;;;;;;;0.40;0.40;;;;;;;9.61;68.51;99090.91;103992;1274;108389;-65
2022/01/03 04:35:47;;;;;;;0.40;0.40;;;;;;;9.58;68.64;99087.70;103673;1274;138739;-64
2022/01/03 04:38:15;;;;;;;0.40;0.40;;;;;;;9.57;68.78;99080.13;103651;1274;94979;-65
2022/01/03 04:40:44;;;;;;;0.40;0.40;;;;;;;9.56;68.97;99083.54;103867;1274;108835;-67
2022/01/03 04:43:12;;;;;;;0.40;0.40;;;;;;;9.55;68.97;99082.83;103517;1274;140300;-66
2022/01/03 04:45:40;;;;;;;0.40;0.40;;;;;;;9.60;68.84;99086.73;103732;1274;94698;-65
2022/01/03 04:48:08;;;;;;;0.50;0.40;;;;;;;9.62;68.79;99089.11;104304;1273;139642;-64
2022/01/03 04:50:35;;;;;;;0.40;0.40;;;;;;;9.63;68.79;99086.58;103627;1274;108837;-65
2022/01/03 04:53:03;;;;;;;0.50;0.40;;;;;;;9.59;68.86;99085.52;103588;1274;108329;-67
2022/01/03 04:55:31;;;;;;;0.50;0.40;;;;;;;9.60;68.91;99080.52;104069;1274;139672;-64
2022/01/03 04:57:59;;;;;;;0.40;0.40;;;;;;;9.60;68.82;99079.09;103792;1274;94317;-67
2022/01/03 05:00:27;;;;;;;0.40;0.40;;;;;;;9.59;68.98;99079.67;103987;1273;139618;-67
2022/01/03 05:02:58;;;;;;;0.40;0.40;;;;;;;9.55;69.05;99080.73;103735;1273;108297;-65
2022/01/03 05:05:27;;;;;;;0.40;0.40;;;;;;;9.56;68.92;99080.69;103818;1274;94327;-65
2022/01/03 05:07:55;;;;;;;0.50;0.40;;;;;;;9.57;68.96;99084.70;103715;1274;140508;-64
2022/01/03 05:10:23;;;;;;;0.40;0.40;;;;;;;9.55;68.95;99085.86;104333;1274;108931;-66
2022/01/03 05:12:51;;;;;;;0.40;0.40;;;;;;;9.52;68.97;99088.98;103687;1274;138667;-66
2022/01/03 05:15:19;;;;;;;0.40;0.40;;;;;;;9.50;69.00;99089.79;103909;1273;94286;-67
2022/01/03 05:17:47;;;;;;;0.40;0.40;;;;;;;9.47;69.12;99094.54;103724;1274;140170;-67
2022/01/03 05:20:14;;;;;;;0.40;0.40;;;;;;;9.46;69.12;99094.23;103862;1274;107350;-66
2022/01/03 05:22:43;;;;;;;0.50;0.40;;;;;;;9.46;69.17;99091.58;103798;1274;108365;-67
2022/01/03 05:25:11;;;;;;;0.40;0.40;;;;;;;9.44;69.28;99091.82;103987;1274;140019;-66
2022/01/03 05:27:42;;;;;;;0.40;0.40;;;;;;;9.50;69.15;99090.86;103646;1274;95076;-66
2022/01/03 05:30:11;;;;;;;0.50;0.40;;;;;;;9.56;68.86;99095.57;103604;1274;138206;-66
2022/01/03 05:32:39;;;;;;;0.50;0.40;;;;;;;9.53;68.91;99089.30;104603;1273;107528;-66
2022/01/03 05:35:07;;;;;;;0.40;0.40;;;;;;;9.49;68.90;99093.36;103923;1273;94485;-65
2022/01/03 05:37:35;;;;;;;0.50;0.40;;;;;;;9.45;69.15;99094.45;103720;1274;138294;-66
2022/01/03 05:40:05;;;;;;;0.40;0.30;;;;;;;9.43;69.12;99095.58;103800;1274;108928;-65
2022/01/03 05:42:33;;;;;;;0.40;0.30;;;;;;;9.42;69.34;99092.80;103766;1274;137840;-65
2022/01/03 05:45:01;;;;;;;0.40;0.40;;;;;;;9.40;69.30;99093.07;103722;1274;95173;-66
2022/01/03 05:47:30;;;;;;;0.40;0.40;;;;;;;9.41;69.37;99091.25;103760;1274;94353;-65
2022/01/03 05:49:59;;;;;;;0.40;0.30;;;;;;;9.43;69.21;99087.96;103976;1274;140511;-66
2022/01/03 05:52:27;;;;;;;0.40;0.40;;;;;;;9.44;69.15;99088.09;107700;1274;108374;-66
2022/01/03 05:54:56;;;;;;;0.50;0.40;;;;;;;9.42;69.00;99088.38;105972;1274;139141;-64
2022/01/03 05:57:24;;;;;;;0.40;0.40;;;;;;;9.42;68.90;99085.71;103874;1273;94324;-65
2022/01/03 05:59:53;;;;;;;0.40;0.40;;;;;;;9.44;68.86;99089.00;103963;1274;140019;-66
2022/01/03 06:02:21;;;;;;;0.50;0.40;;;;;;;9.45;68.81;99084.71;103730;1274;106961;-64
2022/01/03 06:07:20;;;;;;;0.50;0.40;;;;;;;9.43;68.76;99077.68;103690;1274;138028;-65
2022/01/03 06:09:49;;;;;;;0.40;0.40;;;;;;;9.46;68.66;99079.14;103878;1274;109354;-64
2022/01/03 06:12:18;;;;;;;0.40;0.40;;;;;;;9.48;68.50;99080.48;103718;1274;138814;-63
2022/01/03 06:14:49;;;;;;;0.50;0.40;;;;;;;9.44;68.54;99087.38;103725;1274;94397;-63
2022/01/03 06:17:18;;;;;;;0.50;0.40;;;;;;;9.42;68.70;99091.74;103842;1272;94307;-64
2022/01/03 06:19:48;;;;;;;0.40;0.40;;;;;;;9.44;68.68;99093.24;103674;1274;138457;-64
2022/01/03 06:22:17;;;;;;;0.50;0.40;;;;;;;9.45;68.53;99098.88;103796;1274;108508;-65
2022/01/03 06:24:49;;;;;;;0.50;0.40;;;;;;;9.42;68.70;99103.77;103617;1274;138747;-64
2022/01/03 06:27:18;;;;;;;0.50;0.40;;;;;;;9.47;68.42;99106.59;103731;1274;95023;-66
2022/01/03 06:29:46;;;;;;;0.40;0.40;;;;;;;9.48;68.56;99106.88;103689;1274;139857;-65
2022/01/03 06:32:13;;;;;;;0.40;0.40;;;;;;;9.48;68.44;99106.89;103756;1274;108358;-65
2022/01/03 06:34:42;;;;;;;0.50;0.40;;;;;;;9.48;68.40;99107.05;103829;1274;94606;-65
2022/01/03 06:37:10;;;;;;;0.50;0.40;;;;;;;9.49;68.60;99107.20;103722;1273;139623;-64
2022/01/03 06:39:53;;;;;;;0.40;0.40;;;;;;;9.53;68.64;99115.70;103920;1274;109068;-66
2022/01/03 06:42:21;;;;;;;0.50;0.40;;;;;;;9.55;68.44;99116.50;103709;1274;138086;-66
2022/01/03 06:44:49;;;;;;;0.40;0.40;;;;;;;9.52;68.49;99119.13;103788;1274;94918;-66
2022/01/03 06:47:18;;;;;;;0.40;0.40;;;;;;;9.51;68.60;99115.80;103977;1274;95754;-67
2022/01/03 06:49:47;;;;;;;0.40;0.40;;;;;;;9.53;68.61;99116.08;103876;1274;139264;-67
2022/01/03 06:52:15;;;;;;;0.50;0.50;;;;;;;9.60;68.42;99119.67;103783;1274;108881;-65
2022/01/03 06:54:43;;;;;;;0.40;0.40;;;;;;;9.65;68.42;99119.98;103494;1274;139471;-66
2022/01/03 06:57:11;;;;;;;0.40;0.40;;;;;;;9.64;68.48;99116.33;103531;1274;94509;-68
2022/01/03 06:59:40;;;;;;;0.40;0.30;;;;;;;9.71;68.36;99120.09;104088;1274;141347;-67
2022/01/03 07:02:08;;;;;;;0.40;0.40;;;;;;;9.71;68.21;99117.23;103645;1274;106913;-66
2022/01/03 07:04:36;;;;;;;0.40;0.40;;;;;;;9.70;68.26;99117.09;103615;1273;94692;-64
2022/01/03 07:07:05;;;;;;;0.40;0.30;;;;;;;9.73;68.33;99117.69;103644;1274;139091;-66
2022/01/03 07:09:33;;;;;;;0.40;0.40;;;;;;;9.76;68.16;99118.80;103785;1273;107751;-66
2022/01/03 07:12:01;;;;;;;0.40;0.30;;;;;;;9.74;68.13;99117.80;103665;1274;140425;-64
2022/01/03 07:19:49;;;;;;;0.40;0.30;;;;;;;9.75;68.39;99121.14;103856;1274;138333;-66
2022/01/03 07:22:17;;;;;;;0.40;0.40;;;;;;;9.77;68.19;99123.54;103803;1274;108321;-66
2022/01/03 07:24:45;;;;;;;0.50;0.50;;;;;;;9.71;68.30;99126.10;103763;1274;139305;-66
2022/01/03 07:27:13;;;;;;;0.50;0.40;;;;;;;9.69;68.48;99127.44;103691;1274;94400;-66
2022/01/03 07:29:42;;;;;;;0.40;0.40;;;;;;;9.70;68.48;99128.46;103679;1274;140504;-67
2022/01/03 07:32:10;;;;;;;0.50;0.40;;;;;;;9.75;68.49;99127.38;103786;1274;108220;-67
2022/01/03 07:34:38;;;;;;;0.40;0.40;;;;;;;9.77;68.44;99128.86;103867;1274;94327;-66
2022/01/03 07:37:06;;;;;;;0.50;0.40;;;;;;;9.78;68.29;99131.14;103703;1274;138977;-66
2022/01/03 07:39:34;;;;;;;0.50;0.40;;;;;;;9.81;68.30;99127.80;103825;1274;107508;-67
2022/01/03 07:42:03;;;;;;;0.40;0.40;;;;;;;9.84;68.17;99131.20;103648;1274;138967;-66
2022/01/03 07:44:38;;;;;;;0.40;0.40;;;;;;;9.81;68.20;99129.77;103729;1274;95532;-67
2022/01/03 07:47:06;;;;;;;0.40;0.40;;;;;;;9.80;68.21;99129.82;103632;1274;94475;-67
2022/01/03 07:49:34;;;;;;;0.50;0.50;;;;;;;9.83;68.20;99133.05;103615;1274;138277;-66
2022/01/03 07:52:02;;;;;;;0.40;0.40;;;;;;;9.87;68.10;99132.33;103634;1274;108367;-66
2022/01/03 07:54:30;;;;;;;0.40;0.30;;;;;;;9.88;68.00;99131.58;105488;1273;140397;-64
2022/01/03 07:56:59;;;;;;;0.40;0.40;;;;;;;9.87;68.12;99125.61;107692;1273;93460;-66
2022/01/03 07:59:26;;;;;;;0.40;0.40;;;;;;;9.91;68.30;99127.36;107620;1273;109239;-66
2022/01/03 08:01:54;;;;;;;0.40;0.30;;;;;;;9.97;68.10;99126.58;107487;1273;138108;-67
2022/01/03 08:04:22;;;;;;;0.40;0.30;;;;;;;10.00;68.25;99123.06;107732;1273;93543;-67
2022/01/03 08:06:50;;;;;;;0.40;0.30;;;;;;;10.05;68.24;99121.80;105315;1273;138389;-64
2022/01/03 08:09:17;;;;;;;0.40;0.30;;;;;;;10.11;68.15;99117.28;103556;1274;108392;-67
2022/01/03 08:11:45;;;;;;;0.40;0.30;;;;;;;10.14;68.00;99120.84;103581;1274;138413;-64
2022/01/03 08:14:13;;;;;;;0.40;0.30;;;;;;;10.15;68.07;99120.09;103792;1274;95758;-65
2022/01/03 08:16:41;;;;;;;0.40;0.30;;;;;;;10.12;68.20;99117.59;103727;1274;95213;-64
2022/01/03 08:19:09;;;;;;;0.40;0.30;;;;;;;10.12;68.19;99117.55;104076;1274;139165;-67
2022/01/03 08:21:37;;;;;;;0.40;0.30;;;;;;;10.19;68.23;99115.48;103776;1274;109787;-65
2022/01/03 08:24:05;;;;;;;0.40;0.30;;;;;;;10.24;68.06;99114.05;103728;1274;139201;-66
2022/01/03 08:26:35;;;;;;;0.40;0.30;;;;;;;10.20;68.06;99114.39;104195;1274;95687;-67
2022/01/03 08:29:02;;;;;;;0.40;0.30;;;;;;;10.17;68.18;99111.67;103794;1274;108798;-67
2022/01/03 08:31:31;;;;;;;0.40;0.40;;;;;;;10.16;68.23;99109.73;103653;1274;139926;-67
2022/01/03 08:33:59;;;;;;;0.40;0.30;;;;;;;10.16;68.36;99104.25;104004;1274;95264;-65
2022/01/03 08:36:26;;;;;;;0.40;0.30;;;;;;;10.18;68.38;99109.50;103642;1274;139329;-66
2022/01/03 08:38:54;;;;;;;0.40;0.30;;;;;;;10.21;68.38;99112.38;103707;1274;108740;-65
2022/01/03 08:41:22;;;;;;;0.40;0.30;;;;;;;10.23;68.19;99114.41;103720;1274;109881;-66
2022/01/03 08:43:51;;;;;;;0.40;0.30;;;;;;;10.21;68.28;99113.61;103663;1274;140237;-66
2022/01/03 08:46:19;;;;;;;0.40;0.30;;;;;;;10.21;68.24;99115.60;103878;1274;95879;-66
2022/01/03 08:48:47;;;;;;;0.40;0.30;;;;;;;10.23;68.38;99112.30;103595;1274;138346;-67
2022/01/03 08:51:14;;;;;;;0.40;0.30;;;;;;;10.28;68.35;99117.04;103675;1274;109737;-65
2022/01/03 08:53:42;;;;;;;0.40;0.30;;;;;;;10.31;68.20;99116.17;103675;1274;139177;-66
2022/01/03 08:56:10;;;;;;;0.40;0.40;;;;;;;10.31;68.14;99117.08;103700;1274;95207;-65
2022/01/03 08:58:38;;;;;;;0.40;0.40;;;;;;;10.24;68.20;99116.54;103696;1274;109034;-69
2022/01/03 09:01:06;;;;;;;0.40;0.30;;;;;;;10.23;68.33;99118.86;104042;1274;138954;-68
2022/01/03 09:03:34;;;;;;;0.40;0.30;;;;;;;10.19;68.40;99123.63;103790;1274;95245;-66
2022/01/03 09:06:04;;;;;;;0.40;0.30;;;;;;;10.15;68.63;99126.98;103696;1274;138084;-67
2022/01/03 09:08:32;;;;;;;0.40;0.30;;;;;;;10.14;68.77;99126.33;103711;1274;107228;-67
2022/01/03 09:10:59;;;;;;;0.40;0.30;;;;;;;10.09;69.22;99124.30;103713;1274;110517;-65
2022/01/03 09:13:27;;;;;;;0.40;0.30;;;;;;;10.08;69.60;99124.15;103617;1274;138695;-64
2022/01/03 09:15:55;;;;;;;0.40;0.30;;;;;;;10.04;70.00;99126.81;103727;1274;95212;-66
2022/01/03 09:18:25;;;;;;;0.40;0.40;;;;;;;9.99;70.56;99124.02;103610;1274;140611;-67
2022/01/03 09:20:53;;;;;;;0.40;0.30;;;;;;;9.97;71.06;99125.15;103706;1274;109744;-65
2022/01/03 09:23:27;;;;;;;0.40;0.40;;;;;;;10.02;71.17;99127.61;103780;1274;96073;-66
2022/01/03 09:28:54;;;;;;;0.40;0.30;;;;;;;10.10;71.45;99132.00;103714;1274;108977;-67
2022/01/03 09:31:30;;;;;;;0.40;0.30;;;;;;;10.06;71.40;99127.60;103538;1274;138368;-66
2022/01/03 09:34:00;;;;;;;0.40;0.30;;;;;;;10.06;71.81;99130.27;103658;1274;95329;-66
2022/01/03 09:36:29;;;;;;;0.40;0.30;;;;;;;10.05;71.69;99128.00;104077;1274;143923;-67
2022/01/03 09:38:58;;;;;;;0.40;0.40;;;;;;;10.07;71.63;99129.13;103719;1274;108828;-67
2022/01/03 09:41:28;;;;;;;0.40;0.40;;;;;;;10.05;71.46;99127.83;103656;1273;109567;-67
2022/01/03 09:44:04;;;;;;;0.40;0.30;;;;;;;9.99;71.42;99124.72;103934;1274;138996;-66
2022/01/03 09:46:33;;;;;;;0.40;0.40;;;;;;;9.97;71.59;99125.36;103710;1273;95304;-66
2022/01/03 09:49:03;;;;;;;0.40;0.30;;;;;;;9.98;71.83;99124.23;104288;1273;138286;-66
2022/01/03 09:51:31;;;;;;;0.40;0.40;;;;;;;9.98;71.82;99119.95;103706;1273;109697;-67
2022/01/03 09:54:05;;;;;;;0.40;0.30;;;;;;;9.96;71.62;99122.39;103645;1274;139332;-66
2022/01/03 09:56:34;;;;;;;0.40;0.30;;;;;;;9.84;71.55;99126.79;103857;1274;95544;-65
2022/01/03 09:59:03;;;;;;;0.40;0.40;;;;;;;9.75;71.92;99120.63;103735;1274;109305;-67
2022/01/03 10:01:32;;;;;;;0.40;0.30;;;;;;;9.71;72.07;99120.41;103610;1274;138309;-65
2022/01/03 10:04:01;;;;;;;0.40;0.40;;;;;;;9.68;71.92;99117.39;103837;1274;98250;-66
2022/01/03 10:06:29;;;;;;;0.40;0.30;;;;;;;9.65;72.02;99119.79;103599;1273;141929;-65
2022/01/03 10:08:57;;;;;;;0.40;0.40;;;;;;;9.63;72.06;99115.80;103973;1274;108904;-67
2022/01/03 10:11:26;;;;;;;0.40;0.40;;;;;;;9.65;72.20;99114.50;103676;1274;108638;-66
2022/01/03 10:13:54;;;;;;;0.40;0.40;;;;;;;9.68;72.08;99112.23;103452;1274;138885;-67
2022/01/03 10:16:22;;;;;;;0.40;0.30;;;;;;;9.66;72.02;99112.68;103594;1274;95304;-67
2022/01/03 10:19:10;;;;;;;0.40;0.30;;;;;;;9.64;72.09;99109.05;103549;1274;139325;-65
2022/01/03 10:21:45;;;;;;;0.40;0.40;;;;;;;9.64;72.35;99110.48;103680;1274;109583;-67
2022/01/03 10:24:15;;;;;;;0.40;0.40;;;;;;;9.64;72.24;99111.53;103624;1274;139896;-65
2022/01/03 10:26:52;;;;;;;0.40;0.30;;;;;;;9.64;72.17;99108.67;103633;1274;95368;-65
2022/01/03 10:29:21;;;;;;;0.40;0.30;;;;;;;9.64;72.34;99107.63;103821;1274;108843;-68
2022/01/03 10:31:51;;;;;;;0.40;0.30;;;;;;;9.69;72.35;99108.80;103673;1274;140058;-67
2022/01/03 10:34:21;;;;;;;0.40;0.40;;;;;;;9.69;72.15;99110.61;103877;1274;95424;-66
2022/01/03 10:36:51;;;;;;;0.40;0.40;;;;;;;9.66;72.07;99109.14;103679;1274;138215;-66
2022/01/03 10:39:24;;;;;;;0.40;0.30;;;;;;;9.64;71.96;99106.38;104471;1274;108331;-66
2022/01/03 10:41:55;;;;;;;0.50;0.50;;;;;;;9.66;71.86;99108.58;103826;1273;140546;-68
2022/01/03 10:44:48;;;;;;;0.40;0.30;;;;;;;9.70;71.80;99107.71;103734;1274;95219;-68
2022/01/03 10:47:30;;;;;;;0.40;0.40;;;;;;;9.68;71.37;99107.10;103698;1274;96018;-65
2022/01/03 10:49:58;;;;;;;0.40;0.40;;;;;;;9.68;71.30;99107.45;103646;1273;138758;-67
2022/01/03 10:52:28;;;;;;;0.40;0.30;;;;;;;9.77;71.64;99105.66;103643;1274;110407;-67
2022/01/03 10:55:19;;;;;;;0.40;0.40;;;;;;;9.89;71.14;99102.13;103666;1274;138741;-68
2022/01/03 10:57:55;;;;;;;0.40;0.40;;;;;;;9.88;70.43;99104.27;103699;1274;96095;-66
2022/01/03 11:00:37;;;;;;;0.40;0.40;;;;;;;9.84;70.52;99099.98;103672;1274;140310;-68
2022/01/03 11:05:52;;;;;;;0.40;0.30;;;;;;;9.90;70.44;99098.35;103690;1274;140864;-68
2022/01/03 11:11:13;;;;;;;0.40;0.40;;;;;;;9.91;70.31;99098.81;103746;1274;108852;-68
2022/01/03 11:13:48;;;;;;;0.40;0.30;;;;;;;9.92;70.26;99098.95;103585;1275;142371;-66
2022/01/03 11:16:16;;;;;;;0.50;0.40;;;;;;;9.94;70.38;99100.46;103735;1274;95162;-68
2022/01/03 11:18:48;;;;;;;0.40;0.30;;;;;;;9.99;70.44;99100.21;103688;1275;139484;-67
2022/01/03 11:21:23;;;;;;;0.50;0.50;;;;;;;9.98;70.41;99099.59;103738;1274;108818;-68
2022/01/03 11:24:23;;;;;;;0.40;0.30;;;;;;;10.01;70.60;99093.05;103686;1274;140553;-66
2022/01/03 11:26:51;;;;;;;0.40;0.30;;;;;;;10.08;70.44;99086.00;103735;1274;95240;-68
2022/01/03 11:29:19;;;;;;;0.40;0.30;;;;;;;10.11;70.36;99085.87;103734;1274;95211;-66
2022/01/03 11:31:50;;;;;;;0.40;0.30;;;;;;;10.19;70.46;99084.06;103644;1275;138371;-68
2022/01/03 11:34:23;;;;;;;0.40;0.30;;;;;;;10.24;70.29;99079.97;103874;1274;109791;-68
2022/01/03 11:36:59;;;;;;;0.40;0.30;;;;;;;10.36;70.35;99079.08;103602;1274;138803;-68
2022/01/03 11:39:30;;;;;;;0.40;0.30;;;;;;;10.40;69.77;99080.13;103958;1273;95592;-66
2022/01/03 11:41:59;;;;;;;0.40;0.30;;;;;;;10.35;69.86;99077.54;103819;1274;139937;-68
2022/01/03 11:44:28;;;;;;;0.40;0.30;;;;;;;10.30;70.04;99075.77;103716;1274;109879;-68
2022/01/03 11:46:56;;;;;;;0.40;0.30;;;;;;;10.34;70.07;99070.84;103744;1274;95642;-67
2022/01/03 11:49:24;;;;;;;0.40;0.30;;;;;;;10.32;70.10;99071.05;103492;1274;138402;-68
2022/01/03 11:51:53;;;;;;;0.40;0.30;;;;;;;10.32;70.19;99068.56;103706;1274;108801;-68
2022/01/03 11:54:21;;;;;;;0.40;0.30;;;;;;;10.33;70.33;99072.43;103605;1273;140965;-68
2022/01/03 11:57:10;;;;;;;0.40;0.30;;;;;;;10.32;70.45;99072.16;103750;1274;95622;-66